Time;durP1;ratioP1;P1;durP2;ratioP2;P2;SDS_P1;SDS_P2;PMS_P1;PMS_P2;Temp;Humidity;BMP_temperature;BMP_pressure;BME280_temperature;BME280_humidity;BME280_pressure;Samples;Min_cycle;Max_cycle;Signal;HPM_P1;HPM_P2
2022/12/21 00:00:14;;;;;;;85.57;17.63;;;9.50;99.90;;;;;;5040477;28;20450;-86
2022/12/21 00:02:40;;;;;;;75.55;13.38;;;9.40;99.90;;;;;;5040291;28;20176;-87
2022/12/21 00:05:08;;;;;;;73.40;10.93;;;9.30;99.90;;;;;;5058331;28;20232;-87
2022/12/21 00:07:33;;;;;;;72.38;11.95;;;9.30;99.90;;;;;;5057572;28;20678;-87
2022/12/21 00:09:59;;;;;;;73.67;10.30;;;9.30;99.90;;;;;;5039098;28;20192;-87
2022/12/21 00:12:25;;;;;;;73.20;11.27;;;9.20;99.90;;;;;;5038734;28;20199;-87
2022/12/21 00:14:51;;;;;;;71.20;10.83;;;9.20;99.90;;;;;;5056756;28;20161;-87
2022/12/21 00:17:16;;;;;;;75.83;10.80;;;9.20;99.90;;;;;;5039040;28;20414;-87
2022/12/21 00:19:46;;;;;;;78.43;12.40;;;9.30;99.90;;;;;;5038660;28;20202;-87
2022/12/21 00:22:11;;;;;;;73.22;11.02;;;9.30;99.90;;;;;;5057411;28;20189;-87
2022/12/21 00:24:37;;;;;;;70.90;11.77;;;9.30;99.90;;;;;;5040145;28;20263;-87
2022/12/21 00:27:03;;;;;;;73.23;11.43;;;9.40;99.90;;;;;;5057976;28;20175;-87
2022/12/21 00:29:29;;;;;;;71.57;11.48;;;9.40;99.90;;;;;;5057074;28;20556;-87
2022/12/21 00:31:55;;;;;;;73.50;13.03;;;9.40;99.90;;;;;;5039471;28;20184;-87
2022/12/21 00:34:21;;;;;;;75.50;13.03;;;9.40;99.90;;;;;;5039563;28;20176;-86
2022/12/21 00:36:48;;;;;;;72.85;11.70;;;9.40;99.90;;;;;;5040158;28;20763;-87
2022/12/21 00:39:15;;;;;;;73.55;12.32;;;9.40;99.90;;;;;;5039101;28;20161;-86
2022/12/21 00:41:41;;;;;;;75.35;11.82;;;9.50;99.90;;;;;;5039953;28;20189;-86
2022/12/21 00:44:07;;;;;;;74.60;11.77;;;9.50;99.90;;;;;;5040372;28;20177;-87
2022/12/21 00:46:34;;;;;;;70.47;11.05;;;9.50;99.90;;;;;;5057538;28;20403;-87
2022/12/21 00:49:03;;;;;;;72.25;9.98;;;9.50;99.90;;;;;;5057023;28;20165;-86
2022/12/21 00:51:30;;;;;;;76.70;11.70;;;9.50;99.90;;;;;;5038680;28;20279;-86
2022/12/21 00:53:57;;;;;;;74.88;11.20;;;9.50;99.90;;;;;;5059391;28;20168;-86
2022/12/21 00:56:24;;;;;;;80.05;11.32;;;9.50;99.90;;;;;;5043336;28;20172;-86
2022/12/21 00:58:51;;;;;;;70.10;10.63;;;9.50;99.90;;;;;;5062471;28;20255;-86
2022/12/21 01:01:19;;;;;;;69.95;9.38;;;9.50;99.90;;;;;;5043683;28;20279;-86
2022/12/21 01:03:45;;;;;;;69.15;10.27;;;9.50;99.90;;;;;;5043993;28;20536;-86
2022/12/21 01:06:26;;;;;;;75.63;9.38;;;9.50;99.90;;;;;;5061572;28;20169;-87
2022/12/21 01:08:53;;;;;;;68.18;9.13;;;9.50;99.90;;;;;;5042915;28;20168;-86
2022/12/21 01:11:19;;;;;;;67.57;8.30;;;9.50;99.90;;;;;;5043015;28;20223;-86
2022/12/21 01:13:46;;;;;;;69.10;9.05;;;9.60;99.90;;;;;;5061227;28;20211;-85
2022/12/21 01:16:21;;;;;;;67.95;8.65;;;9.60;99.90;;;;;;5043077;28;20164;-85
2022/12/21 01:18:47;;;;;;;68.43;9.63;;;9.60;99.90;;;;;;5044781;28;20222;-86
2022/12/21 01:21:24;;;;;;;68.47;7.95;;;9.60;99.90;;;;;;5063853;28;20576;-85
2022/12/21 01:23:51;;;;;;;69.97;9.55;;;9.60;99.90;;;;;;5062417;28;20283;-85
2022/12/21 01:26:17;;;;;;;71.22;8.50;;;9.60;99.90;;;;;;5062470;28;20168;-85
2022/12/21 01:28:43;;;;;;;67.47;8.13;;;9.60;99.90;;;;;;5059168;28;20169;-85
2022/12/21 01:31:09;;;;;;;68.00;8.85;;;9.60;99.90;;;;;;5040729;28;20251;-85
2022/12/21 01:33:35;;;;;;;69.17;9.00;;;9.70;99.90;;;;;;5059409;28;20583;-85
2022/12/21 01:36:12;;;;;;;68.40;8.70;;;9.70;99.90;;;;;;5024748;28;20192;-86
2022/12/21 01:38:39;;;;;;;68.35;8.73;;;9.70;99.90;;;;;;5041650;28;20769;-86
2022/12/21 01:41:06;;;;;;;68.75;8.48;;;9.70;99.90;;;;;;5058904;28;20544;-85
2022/12/21 01:43:43;;;;;;;67.55;7.97;;;9.70;99.90;;;;;;5040695;28;20283;-86
2022/12/21 01:46:27;;;;;;;67.95;8.75;;;9.70;99.90;;;;;;5059479;28;20543;-86
2022/12/21 01:49:26;;;;;;;66.95;7.88;;;9.70;99.90;;;;;;5042126;28;20207;-87
2022/12/21 01:52:02;;;;;;;67.45;8.25;;;9.70;99.90;;;;;;5041898;28;20270;-87
2022/12/21 01:54:33;;;;;;;68.95;8.93;;;9.70;99.90;;;;;;5041988;28;20164;-85
2022/12/21 01:57:02;;;;;;;68.40;8.25;;;9.70;99.90;;;;;;5042395;28;20188;-86
2022/12/21 01:59:36;;;;;;;67.63;7.45;;;9.70;99.90;;;;;;5041631;28;20169;-86
2022/12/21 02:02:07;;;;;;;68.30;9.20;;;9.70;99.90;;;;;;5060871;28;20189;-87
2022/12/21 02:04:33;;;;;;;67.30;7.80;;;9.70;99.90;;;;;;5060263;28;20640;-86
2022/12/21 02:06:59;;;;;;;67.77;8.37;;;9.80;99.90;;;;;;5041966;28;20172;-86
2022/12/21 02:09:31;;;;;;;67.80;8.37;;;9.80;99.90;;;;;;5059388;28;20185;-86
2022/12/21 02:12:00;;;;;;;67.88;8.48;;;9.80;99.90;;;;;;5042271;28;20431;-87
2022/12/21 02:14:28;;;;;;;68.88;8.32;;;9.80;99.90;;;;;;5059600;28;20247;-87
2022/12/21 02:17:26;;;;;;;71.32;9.27;;;9.80;99.90;;;;;;5041429;28;20657;-87
2022/12/21 02:20:22;;;;;;;67.95;8.95;;;9.80;99.90;;;;;;5060115;28;20180;-87
2022/12/21 02:23:25;;;;;;;68.47;8.50;;;9.80;99.90;;;;;;5041692;28;20302;-87
2022/12/21 02:26:06;;;;;;;69.32;8.55;;;9.70;99.90;;;;;;5041220;28;20203;-87
2022/12/21 02:29:10;;;;;;;68.47;8.63;;;9.70;99.90;;;;;;5041919;28;20160;-87
2022/12/21 02:31:50;;;;;;;69.65;9.60;;;9.70;99.90;;;;;;5041233;28;20199;-86
2022/12/21 02:34:43;;;;;;;69.90;9.75;;;9.70;99.90;;;;;;5041284;28;20180;-87
2022/12/21 02:37:22;;;;;;;70.20;9.80;;;9.70;99.90;;;;;;5059052;28;20161;-86
2022/12/21 02:40:11;;;;;;;67.97;7.57;;;9.70;99.90;;;;;;5041609;28;20247;-86
2022/12/21 02:46:27;;;;;;;68.50;9.40;;;9.70;99.90;;;;;;5054768;28;20270;-86
2022/12/21 02:48:58;;;;;;;69.57;9.35;;;9.70;99.90;;;;;;4959289;28;20242;-87
2022/12/21 02:52:13;;;;;;;70.35;10.40;;;9.70;99.90;;;;;;4958564;29;20196;-87
2022/12/21 02:54:40;;;;;;;69.55;10.05;;;9.70;99.90;;;;;;5023454;28;20172;-85
2022/12/21 02:57:06;;;;;;;69.38;8.27;;;9.70;99.90;;;;;;5059337;28;20165;-87
2022/12/21 02:59:37;;;;;;;68.28;8.77;;;9.70;99.90;;;;;;5040949;28;20171;-86
2022/12/21 03:02:32;;;;;;;80.22;9.63;;;9.70;99.90;;;;;;5059018;28;20181;-86
2022/12/21 03:05:03;;;;;;;68.97;10.02;;;9.60;99.90;;;;;;5041425;28;20161;-86
2022/12/21 03:08:04;;;;;;;71.03;9.35;;;9.60;99.90;;;;;;5041558;28;20648;-87
2022/12/21 03:10:52;;;;;;;71.45;10.52;;;9.60;99.90;;;;;;5010812;28;20208;-86
2022/12/21 03:13:42;;;;;;;70.22;9.10;;;9.70;99.90;;;;;;5042134;28;20532;-87
2022/12/21 03:16:28;;;;;;;67.60;9.00;;;9.70;99.90;;;;;;5041647;28;20561;-87
2022/12/21 03:19:07;;;;;;;72.60;9.57;;;9.60;99.90;;;;;;5041932;28;20208;-86
2022/12/21 03:21:39;;;;;;;68.82;9.50;;;9.60;99.90;;;;;;5059293;28;20176;-86
2022/12/21 03:24:41;;;;;;;71.72;9.20;;;9.60;99.90;;;;;;5060006;28;20157;-85
2022/12/21 03:27:20;;;;;;;69.28;9.60;;;9.60;99.90;;;;;;5019911;28;20244;-86
2022/12/21 03:29:53;;;;;;;69.32;9.07;;;9.60;99.90;;;;;;5041600;28;20199;-85
2022/12/21 03:32:27;;;;;;;68.85;8.98;;;9.60;99.90;;;;;;5041015;28;20192;-86
2022/12/21 03:34:54;;;;;;;70.35;9.73;;;9.50;99.90;;;;;;5041444;28;20540;-87
2022/12/21 03:37:27;;;;;;;71.05;10.55;;;9.50;99.90;;;;;;5040682;28;20643;-86
2022/12/21 03:40:08;;;;;;;69.68;9.30;;;9.60;99.90;;;;;;5040648;28;20200;-87
2022/12/21 03:42:37;;;;;;;70.47;11.45;;;9.60;99.90;;;;;;5040887;28;20247;-87
2022/12/21 03:45:10;;;;;;;72.80;9.60;;;9.50;99.90;;;;;;5059255;28;20169;-87
2022/12/21 03:47:50;;;;;;;68.63;9.52;;;9.50;99.90;;;;;;5058960;28;20149;-87
2022/12/21 03:50:23;;;;;;;71.90;10.38;;;9.50;99.90;;;;;;5059680;28;20183;-87
2022/12/21 03:53:10;;;;;;;72.05;10.77;;;9.50;99.90;;;;;;5041756;28;20192;-87
2022/12/21 03:55:38;;;;;;;69.80;9.57;;;9.50;99.90;;;;;;5041213;28;20501;-87
2022/12/21 03:58:05;;;;;;;70.68;10.18;;;9.50;99.90;;;;;;5040271;28;20169;-87
2022/12/21 04:00:43;;;;;;;69.43;9.85;;;9.60;99.90;;;;;;5040737;28;20200;-87
2022/12/21 04:03:12;;;;;;;73.10;9.93;;;9.50;99.90;;;;;;5040792;28;20164;-87
2022/12/21 04:06:01;;;;;;;69.75;10.43;;;9.50;99.90;;;;;;5040616;28;20171;-87
2022/12/21 04:08:28;;;;;;;72.00;10.25;;;9.50;99.90;;;;;;5040390;28;20160;-87
2022/12/21 04:10:54;;;;;;;73.85;11.50;;;9.50;99.90;;;;;;5058167;28;20291;-87
2022/12/21 04:13:19;;;;;;;70.67;10.17;;;9.50;99.90;;;;;;5040716;28;20176;-87
2022/12/21 04:16:03;;;;;;;70.47;10.53;;;9.50;99.90;;;;;;5058403;28;20160;-87
2022/12/21 04:21:13;;;;;;;70.82;10.60;;;9.50;99.90;;;;;;5058578;28;20575;-87
2022/12/21 04:29:12;;;;;;;71.88;11.32;;;9.60;99.90;;;;;;5062318;28;20164;-86
2022/12/21 04:31:38;;;;;;;72.63;11.70;;;9.50;99.90;;;;;;5046226;28;20555;-86
2022/12/21 04:34:04;;;;;;;72.90;11.10;;;9.50;99.90;;;;;;5063646;28;20172;-86
2022/12/21 04:39:14;;;;;;;71.13;9.70;;;9.60;99.90;;;;;;5063446;28;20382;-86
2022/12/21 04:41:39;;;;;;;71.50;10.40;;;9.60;99.90;;;;;;5044738;28;20192;-86
2022/12/21 04:44:05;;;;;;;70.00;10.20;;;9.60;99.90;;;;;;5045058;28;20255;-86
2022/12/21 04:46:31;;;;;;;70.17;10.93;;;9.50;99.90;;;;;;5063316;28;20165;-87
2022/12/21 04:48:56;;;;;;;76.23;10.07;;;9.60;99.90;;;;;;5063303;28;20172;-86
2022/12/21 04:51:24;;;;;;;71.60;10.70;;;9.60;99.90;;;;;;5044515;28;20261;-86
2022/12/21 04:53:50;;;;;;;72.43;11.38;;;9.60;99.90;;;;;;5044652;28;20173;-87
2022/12/21 04:56:17;;;;;;;73.65;9.93;;;9.60;99.90;;;;;;5044801;28;20640;-86
2022/12/21 04:58:42;;;;;;;71.47;10.52;;;9.60;99.90;;;;;;5062185;28;20176;-86
2022/12/21 05:01:17;;;;;;;72.67;11.53;;;9.60;99.90;;;;;;5044755;28;20189;-86
2022/12/21 05:03:43;;;;;;;72.93;11.65;;;9.60;99.90;;;;;;5044847;28;20494;-86
2022/12/21 05:06:10;;;;;;;72.25;11.50;;;9.60;99.90;;;;;;5044611;28;20218;-87
2022/12/21 05:08:36;;;;;;;74.60;10.85;;;9.60;99.90;;;;;;5062917;28;20251;-87
2022/12/21 05:11:17;;;;;;;71.53;10.85;;;9.60;99.90;;;;;;5044708;28;20549;-86
2022/12/21 05:13:43;;;;;;;73.55;10.75;;;9.60;99.90;;;;;;5045030;28;20171;-86
2022/12/21 05:16:15;;;;;;;72.72;10.32;;;9.60;99.90;;;;;;5062145;28;20524;-87
2022/12/21 05:18:41;;;;;;;70.50;11.60;;;9.60;99.90;;;;;;5043607;28;20152;-87
2022/12/21 05:21:07;;;;;;;69.88;9.93;;;9.60;99.90;;;;;;5043320;28;20196;-87
2022/12/21 05:23:32;;;;;;;71.93;10.50;;;9.60;99.90;;;;;;5061886;28;20173;-87
2022/12/21 05:26:01;;;;;;;71.90;11.87;;;9.60;99.90;;;;;;5061581;28;20187;-87
2022/12/21 05:28:27;;;;;;;74.38;12.70;;;9.60;99.90;;;;;;5044074;28;20415;-87
2022/12/21 05:30:53;;;;;;;72.82;11.50;;;9.60;99.90;;;;;;5043691;28;20200;-87
2022/12/21 05:33:19;;;;;;;75.13;12.83;;;9.60;99.90;;;;;;5132259;23;20226;-86
2022/12/21 05:35:45;;;;;;;73.03;11.60;;;9.60;99.90;;;;;;5075807;28;20394;-86
2022/12/21 05:38:11;;;;;;;72.27;11.10;;;9.60;99.90;;;;;;5074526;28;20410;-87
2022/12/21 05:40:37;;;;;;;71.87;11.33;;;9.60;99.90;;;;;;5069596;28;20192;-87
2022/12/21 05:43:03;;;;;;;75.30;11.90;;;9.60;99.90;;;;;;5055902;28;20225;-86
2022/12/21 05:45:29;;;;;;;74.35;11.52;;;9.60;99.90;;;;;;5055569;28;20251;-87
2022/12/21 05:47:55;;;;;;;72.37;10.97;;;9.50;99.90;;;;;;5055601;28;20184;-87
2022/12/21 05:50:21;;;;;;;73.10;10.70;;;9.50;99.90;;;;;;5037684;28;20286;-88
2022/12/21 05:52:47;;;;;;;72.55;10.45;;;9.40;99.90;;;;;;5055314;28;20542;-87
2022/12/21 05:55:13;;;;;;;73.60;12.50;;;9.40;99.90;;;;;;5037826;28;20251;-87
2022/12/21 05:57:39;;;;;;;74.20;11.37;;;9.40;99.90;;;;;;5038242;28;20233;-87
2022/12/21 06:00:05;;;;;;;77.60;12.20;;;9.40;99.90;;;;;;5055243;28;20407;-87
2022/12/21 06:02:31;;;;;;;74.50;11.23;;;9.40;99.90;;;;;;5055238;28;20165;-87
2022/12/21 06:04:57;;;;;;;72.70;10.47;;;9.40;99.90;;;;;;5037603;28;20256;-87
2022/12/21 06:07:23;;;;;;;75.87;11.70;;;9.40;99.90;;;;;;5037568;28;20715;-87
2022/12/21 06:09:48;;;;;;;79.40;12.10;;;9.40;99.90;;;;;;5037775;28;20453;-87
2022/12/21 06:12:16;;;;;;;76.87;10.30;;;9.40;99.90;;;;;;5037169;28;20188;-87
2022/12/21 06:14:42;;;;;;;73.55;11.00;;;9.50;99.90;;;;;;5055333;28;20157;-87
2022/12/21 06:17:08;;;;;;;77.07;11.70;;;9.50;99.90;;;;;;5037387;28;20536;-87
2022/12/21 06:19:33;;;;;;;73.80;12.20;;;9.40;99.90;;;;;;5054999;28;20165;-87
2022/12/21 06:21:59;;;;;;;76.97;12.50;;;9.40;99.90;;;;;;5054835;28;20254;-87
2022/12/21 06:24:25;;;;;;;78.37;11.17;;;9.40;99.90;;;;;;5054779;28;20632;-87
2022/12/21 06:26:50;;;;;;;77.10;12.60;;;9.40;99.90;;;;;;5055417;28;20165;-87
2022/12/21 06:29:16;;;;;;;78.90;11.23;;;9.40;99.90;;;;;;5037153;28;20165;-87
2022/12/21 06:31:44;;;;;;;73.77;11.03;;;9.40;99.90;;;;;;5054544;28;20181;-87
2022/12/21 06:34:13;;;;;;;75.20;12.10;;;9.40;99.90;;;;;;5036777;28;20552;-87
2022/12/21 06:36:42;;;;;;;76.70;11.23;;;9.40;99.90;;;;;;5055152;28;20632;-88
2022/12/21 06:39:07;;;;;;;80.93;12.57;;;9.40;99.90;;;;;;5036730;28;20711;-87
2022/12/21 06:41:33;;;;;;;73.57;11.17;;;9.40;99.90;;;;;;5054446;28;20230;-87
2022/12/21 06:43:59;;;;;;;78.20;12.20;;;9.30;99.90;;;;;;5054415;28;20633;-88
2022/12/21 06:46:27;;;;;;;75.60;11.47;;;9.30;99.90;;;;;;5054454;28;20649;-88
2022/12/21 06:49:05;;;;;;;78.15;11.85;;;9.30;99.90;;;;;;5054459;28;20232;-88
2022/12/21 06:51:36;;;;;;;76.05;10.93;;;9.40;99.90;;;;;;5036044;28;20354;-88
2022/12/21 06:54:05;;;;;;;75.65;11.32;;;9.30;99.90;;;;;;5054313;28;20149;-88
2022/12/21 06:56:31;;;;;;;74.95;10.73;;;9.30;99.90;;;;;;5054500;28;20242;-88
2022/12/21 06:58:58;;;;;;;82.10;12.18;;;9.30;99.90;;;;;;5054136;28;20532;-88
2022/12/21 07:01:27;;;;;;;73.93;13.45;;;9.20;99.90;;;;;;5053960;28;20189;-88
2022/12/21 07:03:54;;;;;;;73.95;12.80;;;9.20;99.90;;;;;;5054352;28;20172;-87
2022/12/21 07:06:30;;;;;;;75.95;13.70;;;9.20;99.90;;;;;;5054037;28;20164;-87
2022/12/21 07:09:00;;;;;;;79.82;14.98;;;9.20;99.90;;;;;;5035337;28;20230;-87
2022/12/21 07:11:29;;;;;;;74.20;13.23;;;9.20;99.90;;;;;;5053782;28;20199;-87
2022/12/21 07:13:55;;;;;;;74.10;12.10;;;9.20;99.90;;;;;;5054005;28;20167;-87
2022/12/21 07:16:22;;;;;;;75.45;12.35;;;9.30;99.90;;;;;;5053912;28;20245;-87
2022/12/21 07:18:48;;;;;;;78.25;11.85;;;9.30;99.90;;;;;;5036278;28;20199;-87
2022/12/21 07:21:17;;;;;;;73.97;11.07;;;9.30;99.90;;;;;;5035671;28;20193;-87
2022/12/21 07:23:43;;;;;;;73.05;10.43;;;9.30;99.90;;;;;;5035822;28;20671;-88
2022/12/21 07:26:17;;;;;;;75.90;11.65;;;9.30;99.90;;;;;;5035859;28;20176;-87
2022/12/21 07:28:43;;;;;;;71.93;11.40;;;9.30;99.90;;;;;;5036378;28;20570;-87
2022/12/21 07:31:12;;;;;;;76.03;11.63;;;9.30;99.90;;;;;;5035527;28;20204;-87
2022/12/21 07:33:40;;;;;;;74.60;11.23;;;9.30;99.90;;;;;;5035537;28;20266;-88
2022/12/21 07:36:07;;;;;;;78.45;9.98;;;9.40;99.90;;;;;;5035916;28;20204;-88
2022/12/21 07:38:37;;;;;;;77.90;11.50;;;9.30;99.90;;;;;;5053784;28;20180;-89
2022/12/21 07:41:07;;;;;;;75.65;13.52;;;9.30;99.90;;;;;;5035785;28;20285;-89
2022/12/21 07:43:37;;;;;;;77.35;10.32;;;9.30;99.90;;;;;;5036331;28;20263;-89
2022/12/21 07:46:03;;;;;;;74.22;11.57;;;9.40;99.90;;;;;;5035917;28;20172;-89
2022/12/21 07:48:30;;;;;;;73.75;11.70;;;9.30;99.90;;;;;;5053285;28;20274;-88
2022/12/21 07:50:56;;;;;;;78.35;12.32;;;9.40;99.90;;;;;;5035534;28;20211;-88
2022/12/21 07:53:21;;;;;;;75.10;14.10;;;9.40;99.90;;;;;;5035397;28;20528;-88
2022/12/21 07:55:47;;;;;;;71.27;10.20;;;9.30;99.90;;;;;;5035346;28;20415;-88
2022/12/21 07:58:13;;;;;;;78.27;14.20;;;9.40;99.90;;;;;;5053135;28;20239;-88
2022/12/21 08:00:39;;;;;;;75.17;11.30;;;9.30;99.90;;;;;;5053105;28;20185;-88
2022/12/21 08:03:05;;;;;;;72.03;10.45;;;9.40;99.90;;;;;;5053332;28;20164;-88
2022/12/21 08:05:31;;;;;;;72.77;11.97;;;9.40;99.90;;;;;;5035106;28;20263;-88
2022/12/21 08:07:58;;;;;;;75.10;13.07;;;9.40;99.90;;;;;;5035151;28;20983;-88
2022/12/21 08:10:25;;;;;;;79.18;13.32;;;9.40;99.90;;;;;;5035264;28;20466;-88
2022/12/21 08:12:50;;;;;;;77.57;12.13;;;9.50;99.90;;;;;;5035628;28;20222;-88
2022/12/21 08:15:16;;;;;;;78.90;11.10;;;9.50;99.90;;;;;;5035137;28;20663;-89
2022/12/21 08:17:42;;;;;;;75.78;10.27;;;9.50;99.90;;;;;;5053001;28;20191;-88
2022/12/21 08:20:11;;;;;;;79.47;11.07;;;9.60;99.90;;;;;;5034965;28;20660;-88
2022/12/21 08:22:37;;;;;;;73.70;11.05;;;9.60;99.90;;;;;;5035939;28;20538;-89
2022/12/21 08:25:05;;;;;;;74.60;10.20;;;9.60;99.90;;;;;;5053321;28;20172;-88
2022/12/21 08:27:31;;;;;;;73.28;9.93;;;9.60;99.90;;;;;;5052868;28;20169;-88
2022/12/21 08:29:56;;;;;;;78.07;10.60;;;9.70;99.90;;;;;;5053026;28;20525;-88
2022/12/21 08:32:22;;;;;;;76.13;10.47;;;9.70;99.90;;;;;;5052781;28;20184;-88
2022/12/21 08:34:48;;;;;;;74.40;10.77;;;9.70;99.90;;;;;;5053438;28;20662;-88
2022/12/21 08:37:16;;;;;;;73.87;10.73;;;9.70;99.90;;;;;;5035128;28;20175;-88
2022/12/21 08:39:42;;;;;;;72.57;9.73;;;9.70;99.90;;;;;;5035137;28;20176;-88
2022/12/21 08:42:08;;;;;;;72.23;10.40;;;9.70;99.90;;;;;;5052693;28;20215;-88
2022/12/21 08:44:33;;;;;;;76.40;10.70;;;9.60;99.90;;;;;;5034872;28;20173;-88
2022/12/21 08:46:59;;;;;;;73.87;11.33;;;9.70;99.90;;;;;;5034799;28;20173;-88
2022/12/21 08:49:33;;;;;;;72.13;11.43;;;9.70;99.90;;;;;;5034789;28;20164;-88
2022/12/21 08:51:59;;;;;;;79.40;11.15;;;9.60;99.90;;;;;;5034759;28;20212;-88
2022/12/21 08:54:25;;;;;;;74.80;11.90;;;9.60;99.90;;;;;;5034853;28;20203;-89
2022/12/21 08:57:01;;;;;;;77.95;12.55;;;9.70;99.90;;;;;;5035537;28;20176;-88
2022/12/21 08:59:27;;;;;;;76.20;11.75;;;9.70;99.90;;;;;;5052605;28;20223;-88
2022/12/21 09:01:53;;;;;;;75.47;11.60;;;9.80;99.90;;;;;;5034918;28;20275;-88
2022/12/21 09:04:19;;;;;;;76.60;11.90;;;9.70;99.90;;;;;;5034720;28;20223;-88
2022/12/21 09:06:44;;;;;;;75.70;11.18;;;9.70;99.90;;;;;;5034796;28;20662;-88
2022/12/21 09:09:18;;;;;;;73.30;11.67;;;9.80;99.90;;;;;;5035485;28;20180;-88
2022/12/21 09:11:52;;;;;;;76.45;12.50;;;9.80;99.90;;;;;;5035433;28;20473;-88
2022/12/21 09:14:18;;;;;;;73.15;11.38;;;9.80;99.90;;;;;;5036372;28;20169;-88
2022/12/21 09:17:02;;;;;;;77.83;12.70;;;9.80;99.90;;;;;;5056322;28;20640;-88
2022/12/21 09:19:27;;;;;;;75.55;12.75;;;9.80;99.90;;;;;;5038105;28;20160;-88
2022/12/21 09:21:53;;;;;;;75.30;11.50;;;9.80;99.90;;;;;;5056203;28;20187;-88
2022/12/21 09:24:28;;;;;;;74.10;12.40;;;9.90;99.90;;;;;;5038209;28;20164;-89
2022/12/21 09:26:59;;;;;;;74.78;11.45;;;9.80;99.90;;;;;;5056609;28;20171;-89
2022/12/21 09:29:44;;;;;;;74.15;11.57;;;9.80;99.90;;;;;;5038017;28;20179;-89
2022/12/21 09:32:21;;;;;;;69.70;10.00;;;9.70;99.90;;;;;;5038187;28;20195;-89
2022/12/21 09:34:57;;;;;;;70.22;9.38;;;9.80;99.90;;;;;;5038177;28;20186;-88
2022/12/21 09:37:23;;;;;;;77.05;10.25;;;9.80;99.90;;;;;;5038172;28;20163;-89
2022/12/21 09:39:52;;;;;;;70.17;9.37;;;9.90;99.90;;;;;;5055808;28;20160;-89
2022/12/21 09:43:00;;;;;;;71.45;9.35;;;10.00;99.90;;;;;;5055518;28;20719;-89
2022/12/21 09:45:46;;;;;;;69.35;8.25;;;10.00;99.90;;;;;;5038013;28;20179;-89
2022/12/21 09:48:20;;;;;;;71.20;9.20;;;10.10;99.90;;;;;;5055922;28;20681;-89
2022/12/21 09:50:56;;;;;;;70.50;9.38;;;10.20;99.90;;;;;;5038056;28;20200;-89
2022/12/21 09:53:29;;;;;;;71.90;10.27;;;10.30;99.90;;;;;;5055769;28;20149;-89
2022/12/21 09:55:58;;;;;;;71.85;10.57;;;10.30;99.90;;;;;;5054253;28;20275;-89
2022/12/21 09:58:48;;;;;;;76.57;11.85;;;10.40;99.90;;;;;;5038361;28;20168;-89
2022/12/21 10:01:42;;;;;;;78.50;12.55;;;10.40;99.90;;;;;;5038308;28;20201;-89
2022/12/21 10:04:42;;;;;;;75.43;12.93;;;10.40;99.90;;;;;;5053836;28;20632;-89
2022/12/21 10:07:29;;;;;;;78.80;14.35;;;10.50;99.90;;;;;;5038470;28;20234;-89
2022/12/21 10:10:10;;;;;;;79.82;13.82;;;10.50;99.90;;;;;;5037439;28;20222;-88
2022/12/21 10:12:50;;;;;;;85.20;15.73;;;10.50;99.90;;;;;;5055139;28;20157;-89
2022/12/21 10:15:27;;;;;;;88.10;18.25;;;10.50;99.90;;;;;;5055102;28;20194;-88
2022/12/21 10:17:58;;;;;;;92.70;17.15;;;10.50;99.90;;;;;;5037436;28;20215;-88
2022/12/21 10:20:42;;;;;;;83.88;15.27;;;10.50;99.90;;;;;;5055173;28;20280;-88
2022/12/21 10:23:54;;;;;;;81.03;14.25;;;10.60;99.90;;;;;;5038250;28;20200;-88
2022/12/21 10:26:27;;;;;;;77.57;12.68;;;10.50;99.90;;;;;;4972929;28;20197;-88
2022/12/21 10:28:55;;;;;;;78.85;12.85;;;10.50;99.90;;;;;;5048259;28;20184;-88
2022/12/21 10:31:42;;;;;;;82.35;15.43;;;10.40;99.90;;;;;;5054903;28;20220;-88
2022/12/21 10:34:28;;;;;;;79.75;14.30;;;10.40;99.90;;;;;;5036879;28;20211;-87
2022/12/21 10:36:58;;;;;;;79.20;12.30;;;10.40;99.90;;;;;;5055012;28;20205;-88
2022/12/21 10:39:24;;;;;;;78.82;12.63;;;10.40;99.90;;;;;;5036749;28;20172;-88
2022/12/21 10:42:01;;;;;;;77.22;12.18;;;10.40;99.90;;;;;;5036729;28;20191;-88
2022/12/21 10:44:26;;;;;;;80.53;12.73;;;10.50;99.90;;;;;;5037090;28;20662;-87
2022/12/21 10:46:52;;;;;;;81.73;12.60;;;10.40;99.90;;;;;;5037001;28;20180;-88
2022/12/21 10:49:26;;;;;;;78.63;10.97;;;10.50;99.90;;;;;;5054746;28;20568;-88
2022/12/21 10:51:52;;;;;;;74.18;10.25;;;10.60;99.90;;;;;;5036541;28;20191;-87
2022/12/21 10:54:26;;;;;;;74.07;10.20;;;10.60;99.90;;;;;;5036876;28;20175;-88
2022/12/21 10:56:53;;;;;;;81.57;11.35;;;10.70;99.90;;;;;;5036467;28;20254;-88
2022/12/21 10:59:31;;;;;;;75.55;11.85;;;10.90;99.90;;;;;;5036751;28;20168;-88
2022/12/21 11:01:56;;;;;;;79.10;11.52;;;11.00;99.90;;;;;;5036446;28;20184;-88
2022/12/21 11:04:22;;;;;;;75.33;11.60;;;11.00;99.90;;;;;;5036600;28;20168;-88
2022/12/21 11:07:01;;;;;;;73.87;9.13;;;11.00;99.90;;;;;;5036892;28;20153;-88
2022/12/21 11:09:33;;;;;;;73.35;10.38;;;11.00;99.90;;;;;;5054115;28;20152;-88
2022/12/21 11:12:14;;;;;;;74.68;10.68;;;10.90;99.90;;;;;;5053908;28;20183;-87
2022/12/21 11:14:40;;;;;;;72.50;10.07;;;10.90;99.90;;;;;;5054018;28;20153;-88
2022/12/21 11:17:09;;;;;;;72.70;8.57;;;10.90;99.90;;;;;;5053900;28;20195;-88
2022/12/21 11:19:35;;;;;;;70.05;8.07;;;10.80;99.90;;;;;;5036245;28;20171;-88
2022/12/21 11:22:06;;;;;;;72.65;8.13;;;10.90;99.90;;;;;;5035876;28;20185;-88
2022/12/21 11:24:37;;;;;;;72.70;8.00;;;10.90;99.90;;;;;;5054386;28;20149;-88
2022/12/21 11:27:12;;;;;;;70.28;9.02;;;11.00;99.90;;;;;;5053743;28;20149;-89
2022/12/21 11:29:49;;;;;;;73.90;9.45;;;11.00;99.90;;;;;;5035799;28;20557;-88
2022/12/21 11:32:16;;;;;;;71.80;7.43;;;11.10;99.90;;;;;;5035669;28;20180;-88
2022/12/21 11:34:51;;;;;;;69.90;7.45;;;11.10;99.90;;;;;;5140283;23;20628;-85
2022/12/21 11:37:26;;;;;;;75.75;8.73;;;11.00;99.90;;;;;;5046447;28;20168;-86
2022/12/21 11:39:57;;;;;;;69.55;8.27;;;11.10;99.90;;;;;;5047291;28;20171;-87
2022/12/21 11:42:32;;;;;;;72.60;9.40;;;11.10;99.90;;;;;;5046175;28;20208;-86
2022/12/21 11:45:36;;;;;;;70.70;8.48;;;11.10;99.90;;;;;;5045400;28;20505;-86
2022/12/21 11:48:29;;;;;;;68.75;8.10;;;11.10;99.90;;;;;;5046935;28;20165;-86
2022/12/21 11:51:14;;;;;;;69.15;8.65;;;11.10;99.90;;;;;;5061059;28;20628;-87
2022/12/21 11:54:09;;;;;;;71.85;10.48;;;11.20;99.90;;;;;;5061759;28;20152;-85
2022/12/21 11:57:09;;;;;;;73.43;10.48;;;11.10;99.90;;;;;;5042690;28;20164;-87
2022/12/21 11:59:51;;;;;;;72.45;9.35;;;11.10;99.90;;;;;;5041217;28;20173;-86
2022/12/21 12:02:35;;;;;;;69.60;9.60;;;11.10;99.90;;;;;;5059264;28;20548;-87
2022/12/21 12:05:01;;;;;;;69.10;10.40;;;11.10;99.90;;;;;;5042983;28;20175;-86
2022/12/21 12:07:45;;;;;;;68.73;9.47;;;11.00;99.90;;;;;;5043195;28;20157;-87
2022/12/21 12:10:30;;;;;;;77.63;12.43;;;11.10;99.90;;;;;;5059924;28;20506;-86
2022/12/21 12:13:14;;;;;;;71.53;10.95;;;11.20;99.90;;;;;;5055580;28;20181;-85
2022/12/21 12:16:03;;;;;;;70.80;9.63;;;11.20;99.90;;;;;;5054947;28;20153;-86
2022/12/21 12:18:35;;;;;;;70.10;9.00;;;11.20;99.90;;;;;;5040349;28;20168;-87
2022/12/21 12:21:01;;;;;;;67.47;7.60;;;11.30;99.90;;;;;;5043547;28;20194;-87
2022/12/21 12:23:53;;;;;;;70.85;6.60;;;11.30;99.90;;;;;;5060186;28;20176;-87
2022/12/21 12:26:38;;;;;;;70.93;6.93;;;11.40;99.90;;;;;;5042462;28;20200;-85
2022/12/21 12:29:25;;;;;;;70.95;7.43;;;11.40;99.90;;;;;;5041452;28;20164;-86
2022/12/21 12:32:00;;;;;;;68.40;6.88;;;11.30;99.90;;;;;;5042400;28;20199;-85
2022/12/21 12:34:51;;;;;;;68.93;8.07;;;11.40;99.90;;;;;;5059542;28;20184;-85
2022/12/21 12:37:36;;;;;;;72.50;8.02;;;11.50;99.90;;;;;;5042590;28;20640;-86
2022/12/21 12:40:14;;;;;;;74.10;7.68;;;11.50;99.90;;;;;;5058897;28;20161;-85
2022/12/21 12:43:13;;;;;;;73.03;8.65;;;11.40;99.90;;;;;;5058726;28;20152;-86
2022/12/21 12:46:05;;;;;;;71.07;8.48;;;11.40;99.90;;;;;;5059964;28;20153;-85
2022/12/21 12:48:50;;;;;;;71.15;8.13;;;11.40;99.90;;;;;;5060394;28;20149;-86
2022/12/21 12:51:32;;;;;;;71.38;8.07;;;11.20;99.90;;;;;;5045784;28;20188;-87
2022/12/21 12:54:18;;;;;;;73.00;9.45;;;11.20;99.90;;;;;;5063958;28;20145;-86
2022/12/21 12:57:11;;;;;;;70.57;9.60;;;11.20;99.90;;;;;;5064119;28;20145;-87
2022/12/21 12:59:59;;;;;;;71.15;8.48;;;11.20;99.90;;;;;;5064296;28;20141;-87
2022/12/21 13:03:12;;;;;;;72.38;8.13;;;11.20;99.90;;;;;;5046303;28;20188;-86
2022/12/21 13:05:44;;;;;;;72.47;8.77;;;11.20;99.90;;;;;;5003562;28;20175;-86
2022/12/21 13:08:13;;;;;;;74.28;8.60;;;11.20;99.90;;;;;;5035971;28;20196;-87
2022/12/21 13:10:59;;;;;;;71.15;9.35;;;11.20;99.90;;;;;;5045947;28;20204;-87
2022/12/21 13:13:45;;;;;;;72.28;8.15;;;11.20;99.90;;;;;;5064763;28;20149;-86
2022/12/21 13:16:33;;;;;;;72.53;9.32;;;11.20;99.90;;;;;;5046756;28;20161;-86
2022/12/21 13:19:04;;;;;;;72.80;8.27;;;11.20;99.90;;;;;;5033669;28;20169;-88
2022/12/21 13:21:32;;;;;;;71.60;9.32;;;11.30;99.90;;;;;;5047606;28;20223;-87